logo
Search for airport 
image banner adimage banner adimage banner ad
image banner ad

EHGN - G14-A (Oil Platform)

Located in , Netherlands

ICAO - , IATA -

Data provided by Airmate  

General information

Coordinates: N54°13'26" E5°29'55"
Elevation is feet MSL.
 
View others Airports in Friesland

Operational data

Special qualification required
Current time UTC:
Current local time:
METAR: EHHW 161855Z AUTO 22012KT 190V260 9999 FEW012/// 17/14 Q1009
View NOTAMs / SUP AIP / TFR affecting this airport [VIEW]
Communications frequencies: [VIEW]

Runways:

Airport contact information

Address: Netherlands

Satellite view of EHGN